Time,TemperatureF,DewpointF,PressureIn,WindDirection,WindDirectionDegrees,WindSpeedMPH,WindSpeedGustMPH,Humidity,HourlyPrecipIn,Conditions,Clouds,dailyrainin,SoftwareType,DateUTC
2013-01-17 00:00:00,63.5,60.2,18.32,SW,223,0.0,0.0,89,0.00,,,0.04,VWS V14.00,2013-01-17 05:00:00,
2013-01-17 00:02:00,63.5,60.2,18.32,SW,223,0.0,0.0,89,0.00,,,0.04,VWS V14.00,2013-01-17 05:02:00,
2013-01-17 00:03:00,63.5,60.2,18.32,SW,223,0.0,0.0,89,0.00,,,0.04,VWS V14.00,2013-01-17 05:03:00,
2013-01-17 00:08:00,63.5,60.2,18.32,SW,223,0.0,0.0,89,0.00,,,0.00,VWS V14.00,2013-01-17 05:08:00,
2013-01-17 00:13:00,63.5,60.2,18.32,SW,223,0.0,0.0,89,0.00,,,0.00,VWS V14.00,2013-01-17 05:13:00,
2013-01-17 00:18:00,63.7,60.4,18.32,SW,223,0.0,0.0,89,0.00,,,0.00,VWS V14.00,2013-01-17 05:18:00,
2013-01-17 00:23:00,63.7,60.4,18.32,North,357,2.7,3.1,89,0.00,,,0.00,VWS V14.00,2013-01-17 05:23:00,
2013-01-17 00:28:00,63.7,60.4,18.32,West,281,0.0,0.0,89,0.00,,,0.00,VWS V14.00,2013-01-17 05:28:00,
2013-01-17 00:34:00,63.7,60.4,18.32,East,81,0.0,0.0,89,0.00,,,0.00,VWS V14.00,2013-01-17 05:34:00,
2013-01-17 00:39:00,63.9,60.9,18.32,SW,234,0.0,2.7,90,0.00,,,0.04,VWS V14.00,2013-01-17 05:39:00,
2013-01-17 00:44:00,63.5,60.5,18.32,NW,315,3.6,3.6,90,0.00,,,0.04,VWS V14.00,2013-01-17 05:44:00,
2013-01-17 00:49:00,63.5,60.5,18.32,North,6,3.1,3.1,90,0.28,,,0.08,VWS V14.00,2013-01-17 05:49:00,
2013-01-17 00:54:00,63.3,60.3,18.32,North,6,0.0,0.0,90,0.39,,,0.12,VWS V14.00,2013-01-17 05:54:00,
2013-01-17 00:59:00,63.3,60.3,18.32,North,6,0.0,0.0,90,0.39,,,0.12,VWS V14.00,2013-01-17 05:59:00,
2013-01-17 01:04:00,63.5,60.5,18.32,North,6,0.0,0.0,90,0.39,,,0.12,VWS V14.00,2013-01-17 06:04:00,
2013-01-17 01:09:00,63.3,60.3,18.32,North,6,0.0,0.0,90,0.39,,,0.12,VWS V14.00,2013-01-17 06:09:00,
2013-01-17 01:14:00,63.5,60.5,18.32,North,6,0.0,0.0,90,0.39,,,0.12,VWS V14.00,2013-01-17 06:14:00,
2013-01-17 01:20:00,63.5,60.5,18.32,North,6,0.0,0.0,90,0.39,,,0.12,VWS V14.00,2013-01-17 06:20:00,
2013-01-17 01:25:00,63.5,60.5,18.32,North,6,0.0,0.0,90,0.39,,,0.12,VWS V14.00,2013-01-17 06:25:00,
2013-01-17 01:30:00,63.7,60.7,18.32,North,6,0.0,0.0,90,0.39,,,0.12,VWS V14.00,2013-01-17 06:30:00,
2013-01-17 01:35:00,63.7,60.7,18.32,North,6,0.0,0.0,90,0.39,,,0.12,VWS V14.00,2013-01-17 06:35:00,
2013-01-17 01:40:00,63.7,60.7,18.32,North,6,0.0,0.0,90,0.08,,,0.16,VWS V14.00,2013-01-17 06:40:00,
2013-01-17 01:45:00,63.7,60.7,18.32,North,6,0.0,0.0,90,0.08,,,0.16,VWS V14.00,2013-01-17 06:45:00,
2013-01-17 01:50:00,63.9,60.9,18.32,North,6,0.0,0.0,90,0.08,,,0.16,VWS V14.00,2013-01-17 06:50:00,
2013-01-17 01:55:00,63.9,60.9,18.32,North,6,0.0,0.0,90,0.08,,,0.16,VWS V14.00,2013-01-17 06:55:00,
2013-01-17 02:00:00,63.9,60.9,18.32,North,6,0.0,0.0,90,0.08,,,0.16,VWS V14.00,2013-01-17 07:00:00,
2013-01-17 02:05:00,63.9,60.9,18.32,North,6,0.0,0.0,90,0.08,,,0.16,VWS V14.00,2013-01-17 07:05:00,
2013-01-17 02:10:00,64.0,61.0,18.32,North,6,0.0,0.0,90,0.08,,,0.16,VWS V14.00,2013-01-17 07:10:00,
2013-01-17 02:15:00,64.0,61.0,18.32,North,6,0.0,0.0,90,0.08,,,0.16,VWS V14.00,2013-01-17 07:15:00,
2013-01-17 02:21:00,64.0,61.0,18.32,North,6,0.0,0.0,90,0.08,,,0.16,VWS V14.00,2013-01-17 07:21:00,
2013-01-17 02:26:00,64.2,61.2,18.32,North,6,0.0,0.0,90,0.08,,,0.16,VWS V14.00,2013-01-17 07:26:00,
2013-01-17 02:31:00,64.2,61.2,18.32,North,6,0.0,0.0,90,0.08,,,0.16,VWS V14.00,2013-01-17 07:31:00,
2013-01-17 02:36:00,64.0,61.0,18.32,North,6,0.0,0.0,90,0.08,,,0.16,VWS V14.00,2013-01-17 07:36:00,
2013-01-17 02:41:00,64.0,61.0,18.32,North,6,0.0,0.0,90,0.08,,,0.16,VWS V14.00,2013-01-17 07:41:00,
2013-01-17 02:46:00,64.2,61.2,18.32,North,6,0.0,0.0,90,0.08,,,0.16,VWS V14.00,2013-01-17 07:46:00,
2013-01-17 02:51:00,64.2,61.2,18.32,North,6,0.0,0.0,90,0.08,,,0.16,VWS V14.00,2013-01-17 07:51:00,
2013-01-17 02:56:00,64.4,61.4,18.32,North,6,0.0,0.0,90,0.08,,,0.16,VWS V14.00,2013-01-17 07:56:00,
2013-01-17 03:01:00,64.4,61.4,18.32,North,6,0.0,0.0,90,0.08,,,0.16,VWS V14.00,2013-01-17 08:01:00,
2013-01-17 03:06:00,64.6,61.6,18.32,North,6,0.0,0.0,90,0.08,,,0.16,VWS V14.00,2013-01-17 08:06:00,
2013-01-17 03:11:00,64.8,61.8,18.32,WNW,286,0.0,0.0,90,0.08,,,0.16,VWS V14.00,2013-01-17 08:11:00,
2013-01-17 03:16:00,64.8,61.8,18.32,WNW,286,0.0,0.0,90,0.08,,,0.16,VWS V14.00,2013-01-17 08:16:00,
2013-01-17 03:22:00,64.8,61.8,18.32,WNW,286,0.0,0.0,90,0.08,,,0.16,VWS V14.00,2013-01-17 08:22:00,
2013-01-17 03:27:00,64.8,61.8,18.32,WNW,286,0.0,0.0,90,0.08,,,0.16,VWS V14.00,2013-01-17 08:27:00,
2013-01-17 03:32:00,64.8,61.8,18.32,WNW,286,0.0,0.0,90,0.08,,,0.16,VWS V14.00,2013-01-17 08:32:00,
2013-01-17 03:37:00,64.8,61.8,18.32,WNW,286,0.0,0.0,90,0.08,,,0.16,VWS V14.00,2013-01-17 08:37:00,
2013-01-17 03:42:00,64.8,61.8,18.32,WNW,286,0.0,0.0,90,0.08,,,0.16,VWS V14.00,2013-01-17 08:42:00,
2013-01-17 03:47:00,64.9,61.9,18.32,WNW,286,0.0,0.0,90,0.00,,,0.16,VWS V14.00,2013-01-17 08:47:00,
2013-01-17 03:52:00,64.9,61.9,18.32,WNW,286,0.0,0.0,90,0.00,,,0.16,VWS V14.00,2013-01-17 08:52:00,
2013-01-17 03:57:00,64.9,61.9,18.32,WNW,286,0.0,0.0,90,0.00,,,0.16,VWS V14.00,2013-01-17 08:57:00,
2013-01-17 04:02:00,64.9,61.9,18.32,WNW,286,0.0,0.0,90,0.00,,,0.16,VWS V14.00,2013-01-17 09:02:00,
2013-01-17 04:07:00,64.9,61.9,18.32,WNW,286,0.0,0.0,90,0.00,,,0.16,VWS V14.00,2013-01-17 09:07:00,
2013-01-17 04:13:00,64.9,61.9,18.32,WNW,286,0.0,0.0,90,0.00,,,0.16,VWS V14.00,2013-01-17 09:13:00,
2013-01-17 04:18:00,64.9,61.9,18.32,WNW,286,0.0,0.0,90,0.00,,,0.16,VWS V14.00,2013-01-17 09:18:00,
2013-01-17 04:23:00,64.9,61.9,18.32,WNW,286,0.0,0.0,90,0.00,,,0.16,VWS V14.00,2013-01-17 09:23:00,
2013-01-17 04:28:00,65.1,62.1,18.32,SW,233,0.0,0.0,90,0.00,,,0.16,VWS V14.00,2013-01-17 09:28:00,
2013-01-17 04:33:00,64.9,61.9,18.32,SW,219,0.0,0.0,90,0.00,,,0.16,VWS V14.00,2013-01-17 09:33:00,
2013-01-17 04:38:00,65.1,62.1,18.32,SW,219,0.0,0.0,90,0.00,,,0.16,VWS V14.00,2013-01-17 09:38:00,
2013-01-17 04:43:00,65.1,62.1,18.32,SSW,192,2.7,2.7,90,0.00,,,0.16,VWS V14.00,2013-01-17 09:43:00,
2013-01-17 04:48:00,65.3,62.3,18.32,SSW,192,0.0,0.0,90,0.00,,,0.16,VWS V14.00,2013-01-17 09:48:00,
2013-01-17 04:54:00,65.3,62.3,18.32,South,181,0.0,0.0,90,0.00,,,0.16,VWS V14.00,2013-01-17 09:54:00,
2013-01-17 04:59:00,65.3,62.6,18.32,SSE,167,0.0,0.0,91,0.00,,,0.16,VWS V14.00,2013-01-17 09:59:00,
2013-01-17 05:04:00,65.5,62.8,18.32,SSE,152,0.0,0.0,91,0.00,,,0.16,VWS V14.00,2013-01-17 10:04:00,
2013-01-17 05:09:00,65.5,62.8,18.32,SSE,151,0.0,0.0,91,0.00,,,0.16,VWS V14.00,2013-01-17 10:09:00,
2013-01-17 05:14:00,65.5,62.8,18.32,SSE,151,0.0,0.0,91,0.00,,,0.16,VWS V14.00,2013-01-17 10:14:00,
2013-01-17 05:19:00,65.7,63.0,18.32,SSE,167,0.0,0.0,91,0.00,,,0.16,VWS V14.00,2013-01-17 10:19:00,
2013-01-17 05:24:00,65.7,63.0,18.32,SSW,198,0.0,0.0,91,0.00,,,0.16,VWS V14.00,2013-01-17 10:24:00,
2013-01-17 05:29:00,65.7,63.0,18.32,SSW,198,0.0,0.0,91,0.00,,,0.16,VWS V14.00,2013-01-17 10:29:00,
2013-01-17 05:34:00,65.7,63.0,18.32,SSW,198,0.0,0.0,91,0.00,,,0.16,VWS V14.00,2013-01-17 10:34:00,
2013-01-17 05:40:00,65.7,63.0,18.32,SSW,198,0.0,0.0,91,0.00,,,0.16,VWS V14.00,2013-01-17 10:40:00,
2013-01-17 05:45:00,65.7,63.0,18.32,SSW,198,0.0,0.0,91,0.00,,,0.16,VWS V14.00,2013-01-17 10:45:00,
2013-01-17 05:50:00,65.7,63.0,18.32,SSW,198,0.0,0.0,91,0.00,,,0.16,VWS V14.00,2013-01-17 10:50:00,
2013-01-17 05:55:00,65.7,63.0,18.32,SSW,198,0.0,0.0,91,0.00,,,0.16,VWS V14.00,2013-01-17 10:55:00,
2013-01-17 06:00:00,65.7,63.0,18.32,SSW,198,0.0,0.0,91,0.00,,,0.16,VWS V14.00,2013-01-17 11:00:00,
2013-01-17 06:05:00,65.7,63.0,18.32,SSW,198,0.0,0.0,91,0.00,,,0.16,VWS V14.00,2013-01-17 11:05:00,
2013-01-17 06:10:00,65.7,63.0,18.32,SSW,198,0.0,0.0,91,0.00,,,0.16,VWS V14.00,2013-01-17 11:10:00,
2013-01-17 06:15:00,65.7,63.0,18.32,ESE,123,0.0,0.0,91,0.00,,,0.16,VWS V14.00,2013-01-17 11:15:00,
2013-01-17 06:21:00,65.7,63.0,18.32,ESE,123,0.0,0.0,91,0.00,,,0.16,VWS V14.00,2013-01-17 11:21:00,
2013-01-17 06:26:00,65.5,62.8,18.32,ESE,123,0.0,0.0,91,0.00,,,0.16,VWS V14.00,2013-01-17 11:26:00,
2013-01-17 06:31:00,65.5,62.8,18.32,ESE,123,0.0,0.0,91,0.00,,,0.16,VWS V14.00,2013-01-17 11:31:00,
2013-01-17 06:36:00,65.7,63.0,18.32,ESE,123,0.0,0.0,91,0.00,,,0.16,VWS V14.00,2013-01-17 11:36:00,
2013-01-17 06:41:00,65.7,63.0,18.32,ESE,123,0.0,0.0,91,0.00,,,0.16,VWS V14.00,2013-01-17 11:41:00,
2013-01-17 06:46:00,65.7,63.0,18.32,SE,124,0.0,0.0,91,0.00,,,0.16,VWS V14.00,2013-01-17 11:46:00,
2013-01-17 06:51:00,65.7,63.0,18.32,SSW,212,0.0,2.2,91,0.00,,,0.16,VWS V14.00,2013-01-17 11:51:00,
2013-01-17 06:56:00,65.5,62.8,18.32,SSW,204,2.7,2.7,91,0.00,,,0.16,VWS V14.00,2013-01-17 11:56:00,
2013-01-17 07:02:00,65.7,63.0,18.32,SE,136,0.0,0.0,91,0.00,,,0.16,VWS V14.00,2013-01-17 12:02:00,
2013-01-17 07:07:00,65.5,62.8,18.32,SSE,159,0.0,0.0,91,0.00,,,0.20,VWS V14.00,2013-01-17 12:07:00,
2013-01-17 07:12:00,65.5,62.8,18.32,SSE,159,0.0,2.7,91,0.00,,,0.20,VWS V14.00,2013-01-17 12:12:00,
2013-01-17 07:17:00,65.5,62.8,18.32,South,176,0.0,2.2,91,0.00,,,0.20,VWS V14.00,2013-01-17 12:17:00,
2013-01-17 07:22:00,65.5,62.8,18.32,South,176,0.0,0.0,91,0.24,,,0.24,VWS V14.00,2013-01-17 12:22:00,
2013-01-17 07:27:00,65.3,62.6,18.32,SE,138,2.2,3.1,91,0.24,,,0.24,VWS V14.00,2013-01-17 12:27:00,
2013-01-17 07:32:00,65.3,62.6,18.32,SE,128,4.0,4.0,91,0.24,,,0.24,VWS V14.00,2013-01-17 12:32:00,
2013-01-17 07:37:00,65.1,62.4,18.32,SE,139,0.0,0.0,91,0.24,,,0.24,VWS V14.00,2013-01-17 12:37:00,
2013-01-17 07:42:00,65.1,62.4,18.32,ESE,117,2.7,2.7,91,0.24,,,0.24,VWS V14.00,2013-01-17 12:42:00,
2013-01-17 07:47:00,65.1,62.4,18.32,SE,128,2.7,3.6,91,0.24,,,0.24,VWS V14.00,2013-01-17 12:47:00,
2013-01-17 07:52:00,65.1,62.4,18.32,SSE,150,3.6,3.6,91,0.24,,,0.24,VWS V14.00,2013-01-17 12:52:00,
2013-01-17 07:58:00,65.1,62.4,18.32,East,94,0.0,3.1,91,0.24,,,0.24,VWS V14.00,2013-01-17 12:58:00,
2013-01-17 08:03:00,65.1,62.4,18.32,SE,144,0.0,0.0,91,0.24,,,0.24,VWS V14.00,2013-01-17 13:03:00,
2013-01-17 08:08:00,65.1,62.4,18.32,East,89,0.0,0.0,91,0.24,,,0.24,VWS V14.00,2013-01-17 13:08:00,
2013-01-17 08:13:00,65.3,62.6,18.32,SE,130,0.0,2.7,91,0.24,,,0.24,VWS V14.00,2013-01-17 13:13:00,
2013-01-17 08:18:00,65.5,62.8,18.32,SE,130,0.0,2.7,91,0.24,,,0.24,VWS V14.00,2013-01-17 13:18:00,
2013-01-17 08:23:00,65.5,62.8,18.32,SE,131,0.0,0.0,91,0.24,,,0.24,VWS V14.00,2013-01-17 13:23:00,
2013-01-17 08:28:00,65.5,62.8,18.32,ESE,120,3.6,3.6,91,0.24,,,0.24,VWS V14.00,2013-01-17 13:28:00,
2013-01-17 08:33:00,65.3,62.6,18.32,SE,126,2.2,2.2,91,0.24,,,0.24,VWS V14.00,2013-01-17 13:33:00,
2013-01-17 08:38:00,65.3,62.6,18.32,SSE,151,2.2,2.7,91,0.24,,,0.24,VWS V14.00,2013-01-17 13:38:00,
2013-01-17 08:43:00,65.5,62.8,18.32,SSE,150,3.1,4.0,91,0.24,,,0.24,VWS V14.00,2013-01-17 13:43:00,
2013-01-17 08:48:00,65.5,62.8,18.32,South,179,3.1,3.1,91,0.24,,,0.24,VWS V14.00,2013-01-17 13:48:00,
2013-01-17 08:53:00,65.5,62.8,18.32,SSW,198,0.0,3.6,91,0.24,,,0.24,VWS V14.00,2013-01-17 13:53:00,
2013-01-17 08:58:00,65.5,62.8,18.32,ESE,117,3.1,5.8,91,0.24,,,0.24,VWS V14.00,2013-01-17 13:58:00,
2013-01-17 09:04:00,65.7,63.0,18.32,SE,140,3.1,4.9,91,0.24,,,0.24,VWS V14.00,2013-01-17 14:04:00,
2013-01-17 09:09:00,65.7,63.0,18.32,ESE,120,5.8,5.8,91,0.24,,,0.24,VWS V14.00,2013-01-17 14:09:00,
2013-01-17 09:14:00,65.7,63.0,18.32,ENE,75,2.2,3.6,91,0.24,,,0.24,VWS V14.00,2013-01-17 14:14:00,
2013-01-17 09:19:00,65.8,63.1,18.32,SSE,153,0.0,2.2,91,0.24,,,0.24,VWS V14.00,2013-01-17 14:19:00,
2013-01-17 09:24:00,65.8,63.1,18.32,SSE,148,2.7,3.1,91,0.24,,,0.24,VWS V14.00,2013-01-17 14:24:00,
2013-01-17 09:29:00,66.0,63.3,18.32,ESE,116,4.0,4.0,91,0.00,,,0.24,VWS V14.00,2013-01-17 14:29:00,
2013-01-17 09:34:00,65.8,63.1,18.32,SSE,149,0.0,4.9,91,0.00,,,0.24,VWS V14.00,2013-01-17 14:34:00,
2013-01-17 09:39:00,66.4,63.4,18.32,ESE,120,3.1,3.1,90,0.00,,,0.24,VWS V14.00,2013-01-17 14:39:00,
2013-01-17 09:44:00,66.6,63.5,18.32,SE,127,0.0,0.0,90,0.00,,,0.24,VWS V14.00,2013-01-17 14:44:00,
2013-01-17 09:49:00,66.7,63.7,18.32,SE,133,0.0,3.1,90,0.00,,,0.24,VWS V14.00,2013-01-17 14:49:00,
2013-01-17 09:54:00,67.3,64.2,18.32,ESE,123,0.0,0.0,90,0.00,,,0.24,VWS V14.00,2013-01-17 14:54:00,
2013-01-17 09:59:00,67.3,64.2,18.32,SSE,153,3.1,4.0,90,0.00,,,0.24,VWS V14.00,2013-01-17 14:59:00,
2013-01-17 10:04:00,67.3,63.9,18.32,SSE,155,0.0,2.7,89,0.00,,,0.24,VWS V14.00,2013-01-17 15:04:00,
2013-01-17 10:10:00,67.6,64.0,18.32,SE,127,2.7,3.6,88,0.00,,,0.24,VWS V14.00,2013-01-17 15:10:00,
2013-01-17 10:15:00,67.5,63.5,18.32,SE,142,3.1,4.0,87,0.00,,,0.24,VWS V14.00,2013-01-17 15:15:00,
2013-01-17 10:20:00,67.6,63.3,18.32,ESE,104,5.4,5.4,86,0.00,,,0.24,VWS V14.00,2013-01-17 15:20:00,
2013-01-17 10:25:00,67.8,62.8,18.32,ENE,74,3.6,4.5,84,0.00,,,0.24,VWS V14.00,2013-01-17 15:25:00,
2013-01-17 10:30:00,68.0,62.3,18.32,ESE,117,3.1,5.8,82,0.00,,,0.24,VWS V14.00,2013-01-17 15:30:00,
2013-01-17 10:35:00,68.4,62.3,18.32,ESE,113,0.0,3.1,81,0.00,,,0.24,VWS V14.00,2013-01-17 15:35:00,
2013-01-17 10:40:00,68.0,60.9,18.32,ESE,123,0.0,3.6,78,0.00,,,0.24,VWS V14.00,2013-01-17 15:40:00,
2013-01-17 10:45:00,68.0,60.5,18.32,SE,127,6.3,6.3,77,0.00,,,0.24,VWS V14.00,2013-01-17 15:45:00,
2013-01-17 10:50:00,68.2,61.1,18.32,SSE,153,0.0,2.7,78,0.00,,,0.24,VWS V14.00,2013-01-17 15:50:00,
2013-01-17 10:55:00,68.2,60.7,18.32,SSW,199,0.0,0.0,77,0.00,,,0.24,VWS V14.00,2013-01-17 15:55:00,
2013-01-17 11:00:00,69.1,61.9,18.32,SE,127,0.0,0.0,78,0.00,,,0.24,VWS V14.00,2013-01-17 16:00:00,
2013-01-17 11:05:00,68.9,60.7,18.32,West,274,0.0,3.6,75,0.00,,,0.24,VWS V14.00,2013-01-17 16:05:00,
2013-01-17 11:10:00,70.0,61.7,18.32,ESE,122,4.9,4.9,75,0.00,,,0.24,VWS V14.00,2013-01-17 16:10:00,
2013-01-17 11:15:00,70.5,60.7,18.32,ESE,105,3.1,4.9,71,0.00,,,0.24,VWS V14.00,2013-01-17 16:15:00,
2013-01-17 11:21:00,71.2,60.2,18.32,SSE,166,2.7,2.7,68,0.00,,,0.24,VWS V14.00,2013-01-17 16:21:00,
2013-01-17 11:26:00,71.1,57.8,18.32,SE,127,3.1,3.6,63,0.00,,,0.24,VWS V14.00,2013-01-17 16:26:00,
2013-01-17 11:31:00,70.3,57.2,18.32,SSE,164,3.6,5.8,63,0.00,,,0.24,VWS V14.00,2013-01-17 16:31:00,
2013-01-17 11:36:00,70.2,57.9,18.32,SSE,167,2.2,5.4,65,0.00,,,0.24,VWS V14.00,2013-01-17 16:36:00,
2013-01-17 11:41:00,69.8,57.5,18.32,SE,138,0.0,2.7,65,0.00,,,0.24,VWS V14.00,2013-01-17 16:41:00,
2013-01-17 11:46:00,69.4,57.6,18.32,SE,137,0.0,4.0,66,0.00,,,0.24,VWS V14.00,2013-01-17 16:46:00,
2013-01-17 11:51:00,69.1,57.7,18.32,SSW,194,3.6,6.3,67,0.00,,,0.24,VWS V14.00,2013-01-17 16:51:00,
2013-01-17 11:56:00,69.1,57.7,18.32,SW,222,4.0,7.6,67,0.00,,,0.24,VWS V14.00,2013-01-17 16:56:00,
2013-01-17 12:01:00,69.1,57.7,18.32,SE,143,0.0,2.2,67,0.00,,,0.24,VWS V14.00,2013-01-17 17:01:00,
2013-01-17 12:06:00,69.1,58.1,18.32,WSW,246,0.0,0.0,68,0.00,,,0.24,VWS V14.00,2013-01-17 17:06:00,
2013-01-17 12:11:00,69.1,58.1,18.32,East,90,3.6,3.6,68,0.00,,,0.24,VWS V14.00,2013-01-17 17:11:00,
2013-01-17 12:16:00,69.1,58.1,18.32,ESE,120,2.7,4.0,68,0.00,,,0.24,VWS V14.00,2013-01-17 17:16:00,
2013-01-17 12:21:00,68.9,57.5,18.32,South,178,5.4,7.2,67,0.00,,,0.24,VWS V14.00,2013-01-17 17:21:00,
2013-01-17 12:26:00,68.9,57.5,18.32,South,178,4.0,5.4,67,0.00,,,0.24,VWS V14.00,2013-01-17 17:26:00,
2013-01-17 12:32:00,68.5,58.0,18.32,SE,124,5.4,6.3,69,0.00,,,0.24,VWS V14.00,2013-01-17 17:32:00,
2013-01-17 12:37:00,68.4,58.2,18.32,South,182,5.4,5.4,70,0.00,,,0.24,VWS V14.00,2013-01-17 17:37:00,
2013-01-17 12:42:00,68.0,58.3,18.32,SW,216,4.9,10.1,71,0.00,,,0.24,VWS V14.00,2013-01-17 17:42:00,
2013-01-17 12:47:00,67.1,57.8,18.32,NW,305,10.5,10.5,72,0.00,,,0.24,VWS V14.00,2013-01-17 17:47:00,
2013-01-17 12:52:00,63.7,52.5,18.32,WSW,240,8.7,16.3,67,0.00,,,0.24,VWS V14.00,2013-01-17 17:52:00,
2013-01-17 12:57:00,62.6,53.1,18.32,South,170,5.8,11.0,71,0.00,,,0.24,VWS V14.00,2013-01-17 17:57:00,
2013-01-17 13:02:00,61.7,53.3,18.32,West,279,5.4,11.0,74,0.00,,,0.28,VWS V14.00,2013-01-17 18:02:00,
2013-01-17 13:07:00,60.6,53.4,18.32,SW,217,4.0,6.3,77,0.00,,,0.28,VWS V14.00,2013-01-17 18:07:00,
2013-01-17 13:13:00,60.1,53.9,18.32,WSW,243,2.7,4.0,80,0.00,,,0.28,VWS V14.00,2013-01-17 18:13:00,
2013-01-17 13:18:00,59.5,53.7,18.32,SSW,208,6.3,10.1,81,0.00,,,0.28,VWS V14.00,2013-01-17 18:18:00,
2013-01-17 13:23:00,59.2,52.7,18.32,SSW,199,4.9,5.8,79,0.00,,,0.28,VWS V14.00,2013-01-17 18:23:00,
2013-01-17 13:28:00,59.0,52.5,18.32,SW,234,3.1,10.5,79,0.00,,,0.28,VWS V14.00,2013-01-17 18:28:00,
2013-01-17 13:33:00,58.6,52.5,18.32,SSE,168,5.8,8.1,80,0.00,,,0.28,VWS V14.00,2013-01-17 18:33:00,
2013-01-17 13:38:00,58.5,52.7,18.32,South,187,4.0,11.0,81,0.00,,,0.28,VWS V14.00,2013-01-17 18:38:00,
2013-01-17 13:43:00,58.3,52.5,18.32,SW,220,3.6,13.2,81,0.00,,,0.28,VWS V14.00,2013-01-17 18:43:00,
2013-01-17 13:48:00,57.2,50.4,18.32,SW,221,10.5,10.5,78,0.00,,,0.28,VWS V14.00,2013-01-17 18:48:00,
2013-01-17 13:53:00,56.3,49.2,18.32,West,269,6.3,8.3,77,0.00,,,0.28,VWS V14.00,2013-01-17 18:53:00,
2013-01-17 13:59:00,55.6,49.2,18.32,South,191,6.3,8.3,79,0.00,,,0.28,VWS V14.00,2013-01-17 18:59:00,
2013-01-17 14:04:00,55.4,49.0,18.32,SSW,204,14.5,14.5,79,0.00,,,0.28,VWS V14.00,2013-01-17 19:04:00,
2013-01-17 14:09:00,55.4,48.7,18.32,WSW,256,5.8,12.3,78,0.00,,,0.28,VWS V14.00,2013-01-17 19:09:00,
2013-01-17 14:14:00,55.4,49.0,18.32,SSW,196,7.6,13.2,79,0.00,,,0.28,VWS V14.00,2013-01-17 19:14:00,
2013-01-17 14:19:00,55.0,49.3,18.32,SW,222,8.3,11.0,81,0.04,,,0.31,VWS V14.00,2013-01-17 19:19:00,
2013-01-17 14:24:00,54.7,49.3,18.32,SW,235,8.1,11.9,82,0.04,,,0.31,VWS V14.00,2013-01-17 19:24:00,
2013-01-17 14:29:00,54.1,49.1,18.32,WNW,285,11.0,17.9,83,0.04,,,0.31,VWS V14.00,2013-01-17 19:29:00,
2013-01-17 14:34:00,53.2,47.9,18.32,South,175,10.1,10.5,82,0.04,,,0.35,VWS V14.00,2013-01-17 19:34:00,
2013-01-17 14:39:00,52.2,46.5,18.32,SSW,194,5.8,12.8,81,0.04,,,0.35,VWS V14.00,2013-01-17 19:39:00,
2013-01-17 14:44:00,52.0,46.7,18.32,SW,230,5.4,5.4,82,0.04,,,0.35,VWS V14.00,2013-01-17 19:44:00,
2013-01-17 14:50:00,51.3,46.3,18.32,SW,217,8.1,17.0,83,0.04,,,0.35,VWS V14.00,2013-01-17 19:50:00,
2013-01-17 14:55:00,50.7,45.1,18.32,SSW,205,3.1,6.7,81,0.04,,,0.39,VWS V14.00,2013-01-17 19:55:00,
2013-01-17 15:00:00,50.7,45.4,18.32,SW,221,7.6,8.7,82,0.12,,,0.39,VWS V14.00,2013-01-17 20:00:00,
2013-01-17 15:05:00,50.5,45.6,18.32,SW,217,5.8,6.3,83,0.12,,,0.39,VWS V14.00,2013-01-17 20:05:00,
2013-01-17 15:10:00,50.5,45.6,18.32,WSW,255,4.5,6.3,83,0.12,,,0.39,VWS V14.00,2013-01-17 20:10:00,
2013-01-17 15:15:00,50.0,45.0,18.32,SW,219,8.7,15.4,83,0.12,,,0.43,VWS V14.00,2013-01-17 20:15:00,
2013-01-17 15:20:00,50.0,45.0,18.32,WSW,240,2.7,9.6,83,0.12,,,0.43,VWS V14.00,2013-01-17 20:20:00,
2013-01-17 15:25:00,49.5,44.2,18.32,WSW,241,5.4,11.0,82,0.12,,,0.43,VWS V14.00,2013-01-17 20:25:00,
2013-01-17 15:30:00,49.8,43.9,18.32,SW,220,5.4,6.3,80,0.12,,,0.43,VWS V14.00,2013-01-17 20:30:00,
2013-01-17 15:35:00,55.6,47.1,18.32,South,171,4.0,5.8,73,0.12,,,0.43,VWS V14.00,2013-01-17 20:35:00,
2013-01-17 15:41:00,52.2,37.0,18.32,SW,225,8.7,10.1,56,0.12,,,0.43,VWS V14.00,2013-01-17 20:41:00,
2013-01-17 15:46:00,52.5,37.3,18.32,SSW,207,5.4,13.2,56,0.12,,,0.43,VWS V14.00,2013-01-17 20:46:00,
2013-01-17 15:51:00,50.4,38.3,18.32,WSW,241,5.8,7.6,63,0.12,,,0.43,VWS V14.00,2013-01-17 20:51:00,
2013-01-17 15:56:00,51.1,38.5,18.32,West,259,7.6,11.4,62,0.12,,,0.43,VWS V14.00,2013-01-17 20:56:00,
2013-01-17 16:01:00,55.8,36.4,18.32,SSW,213,8.3,8.3,48,0.12,,,0.43,VWS V14.00,2013-01-17 21:01:00,
2013-01-17 16:06:00,53.8,37.5,18.32,WSW,251,4.0,6.3,54,0.12,,,0.43,VWS V14.00,2013-01-17 21:06:00,
2013-01-17 16:11:00,57.6,34.7,18.32,SW,230,6.3,8.3,42,0.12,,,0.43,VWS V14.00,2013-01-17 21:11:00,
2013-01-17 16:16:00,53.8,30.0,18.32,SW,214,8.1,13.2,40,0.12,,,0.43,VWS V14.00,2013-01-17 21:16:00,
2013-01-17 16:21:00,50.0,31.1,18.32,South,184,8.3,8.3,48,0.12,,,0.43,VWS V14.00,2013-01-17 21:21:00,
2013-01-17 16:26:00,51.1,32.1,18.32,WSW,237,6.3,7.6,48,0.12,,,0.43,VWS V14.00,2013-01-17 21:26:00,
2013-01-17 16:31:00,53.6,33.3,18.32,WNW,297,7.2,7.2,46,0.12,,,0.43,VWS V14.00,2013-01-17 21:31:00,
2013-01-17 16:36:00,51.8,28.9,18.32,WNW,294,15.4,15.4,41,0.12,,,0.43,VWS V14.00,2013-01-17 21:36:00,
2013-01-17 16:41:00,49.5,29.0,18.32,SW,232,6.3,13.2,45,0.12,,,0.43,VWS V14.00,2013-01-17 21:41:00,
2013-01-17 16:47:00,49.6,29.2,18.32,SW,236,13.2,13.2,45,0.12,,,0.43,VWS V14.00,2013-01-17 21:47:00,
2013-01-17 16:52:00,49.3,29.9,18.32,SSW,211,4.0,5.4,47,0.12,,,0.43,VWS V14.00,2013-01-17 21:52:00,
2013-01-17 16:57:00,49.3,29.9,18.32,WSW,258,3.6,7.6,47,0.12,,,0.43,VWS V14.00,2013-01-17 21:57:00,
2013-01-17 17:02:00,49.1,30.3,18.32,WSW,253,5.4,10.5,48,0.12,,,0.43,VWS V14.00,2013-01-17 22:02:00,
2013-01-17 17:07:00,48.9,30.1,18.32,West,272,3.1,9.6,48,0.12,,,0.43,VWS V14.00,2013-01-17 22:07:00,
2013-01-17 17:12:00,48.7,29.9,18.32,WSW,252,12.3,13.2,48,0.12,,,0.43,VWS V14.00,2013-01-17 22:12:00,
2013-01-17 17:17:00,48.7,29.4,18.32,NW,320,8.7,8.7,47,0.12,,,0.43,VWS V14.00,2013-01-17 22:17:00,
2013-01-17 17:22:00,48.4,26.9,18.32,West,272,3.1,16.3,43,0.00,,,0.43,VWS V14.00,2013-01-17 22:22:00,
2013-01-17 17:27:00,48.0,27.7,18.32,WSW,244,12.3,12.3,45,0.00,,,0.43,VWS V14.00,2013-01-17 22:27:00,
2013-01-17 17:32:00,47.7,27.4,18.32,South,188,12.8,12.8,45,0.00,,,0.43,VWS V14.00,2013-01-17 22:32:00,
2013-01-17 17:37:00,47.5,27.8,18.32,WSW,240,4.0,10.5,46,0.00,,,0.43,VWS V14.00,2013-01-17 22:37:00,
2013-01-17 17:43:00,47.1,28.5,18.32,WSW,238,2.7,2.7,48,0.00,,,0.43,VWS V14.00,2013-01-17 22:43:00,
2013-01-17 17:48:00,46.9,28.8,18.32,SW,236,2.7,4.0,49,0.00,,,0.43,VWS V14.00,2013-01-17 22:48:00,
2013-01-17 17:53:00,46.9,28.8,18.32,West,260,2.7,4.0,49,0.00,,,0.43,VWS V14.00,2013-01-17 22:53:00,
2013-01-17 17:58:00,46.9,29.3,18.32,WSW,253,5.8,5.8,50,0.00,,,0.43,VWS V14.00,2013-01-17 22:58:00,
2013-01-17 18:03:00,46.9,29.3,18.32,West,266,2.7,4.9,50,0.00,,,0.43,VWS V14.00,2013-01-17 23:03:00,
2013-01-17 18:08:00,46.9,29.3,18.32,WSW,250,9.2,9.2,50,0.00,,,0.43,VWS V14.00,2013-01-17 23:08:00,
2013-01-17 18:13:00,46.8,28.1,18.32,West,259,8.1,8.1,48,0.00,,,0.43,VWS V14.00,2013-01-17 23:13:00,
2013-01-17 18:18:00,46.6,27.5,18.32,WNW,285,6.3,8.3,47,0.00,,,0.43,VWS V14.00,2013-01-17 23:18:00,
2013-01-17 18:23:00,46.6,27.5,18.32,SW,236,8.7,14.5,47,0.00,,,0.43,VWS V14.00,2013-01-17 23:23:00,
2013-01-17 18:28:00,46.2,27.6,18.32,WSW,253,8.1,13.6,48,0.00,,,0.43,VWS V14.00,2013-01-17 23:28:00,
2013-01-17 18:33:00,46.0,28.5,18.32,NNW,337,2.7,6.3,50,0.00,,,0.43,VWS V14.00,2013-01-17 23:33:00,
2013-01-17 18:39:00,45.9,27.8,18.32,West,259,12.3,12.3,49,0.00,,,0.43,VWS V14.00,2013-01-17 23:39:00,
2013-01-17 18:44:00,45.9,28.3,18.32,WSW,256,3.6,4.9,50,0.00,,,0.43,VWS V14.00,2013-01-17 23:44:00,
2013-01-17 18:49:00,45.9,28.3,18.32,NW,314,2.7,6.3,50,0.00,,,0.43,VWS V14.00,2013-01-17 23:49:00,
2013-01-17 18:54:00,45.9,28.3,18.32,NW,324,3.1,5.8,50,0.00,,,0.43,VWS V14.00,2013-01-17 23:54:00,
2013-01-17 18:59:00,45.9,28.3,18.32,NW,305,5.4,8.1,50,0.00,,,0.43,VWS V14.00,2013-01-17 23:59:00,
2013-01-17 19:04:00,45.7,27.1,18.32,WNW,300,7.6,8.7,48,0.00,,,0.43,VWS V14.00,2013-01-18 00:04:00,
2013-01-17 19:09:00,45.7,27.1,18.32,North,357,5.8,8.3,48,0.00,,,0.43,VWS V14.00,2013-01-18 00:09:00,
2013-01-17 19:14:00,45.7,27.1,18.32,NNW,329,5.8,11.0,48,0.00,,,0.43,VWS V14.00,2013-01-18 00:14:00,
2013-01-17 19:19:00,45.5,27.0,18.32,WNW,297,7.6,8.7,48,0.00,,,0.43,VWS V14.00,2013-01-18 00:19:00,
2013-01-17 19:24:00,45.3,26.3,18.32,WNW,297,8.7,8.7,47,0.00,,,0.43,VWS V14.00,2013-01-18 00:24:00,
2013-01-17 19:30:00,45.3,26.3,18.32,WNW,288,4.0,5.8,47,0.00,,,0.43,VWS V14.00,2013-01-18 00:30:00,
2013-01-17 19:35:00,45.1,26.6,18.32,NW,306,3.6,5.8,48,0.00,,,0.43,VWS V14.00,2013-01-18 00:35:00,
2013-01-17 19:40:00,45.1,27.1,18.32,WNW,286,5.8,5.8,49,0.00,,,0.43,VWS V14.00,2013-01-18 00:40:00,
2013-01-17 19:45:00,45.1,26.6,18.32,NW,309,6.7,10.5,48,0.00,,,0.43,VWS V14.00,2013-01-18 00:45:00,
2013-01-17 19:50:00,45.0,26.5,18.32,SSW,202,6.3,8.7,48,0.00,,,0.43,VWS V14.00,2013-01-18 00:50:00,
2013-01-17 19:55:00,44.8,26.8,18.32,WSW,239,4.0,10.5,49,0.00,,,0.43,VWS V14.00,2013-01-18 00:55:00,
2013-01-17 20:00:00,44.8,27.3,18.32,North,357,7.6,7.6,50,0.00,,,0.43,VWS V14.00,2013-01-18 01:00:00,
2013-01-17 20:05:00,44.8,27.3,18.32,NNW,342,5.8,6.3,50,0.00,,,0.43,VWS V14.00,2013-01-18 01:05:00,
2013-01-17 20:10:00,44.6,26.6,18.32,North,6,3.1,8.7,49,0.00,,,0.43,VWS V14.00,2013-01-18 01:10:00,
2013-01-17 20:15:00,44.6,27.1,18.32,WNW,293,11.0,11.0,50,0.00,,,0.43,VWS V14.00,2013-01-18 01:15:00,
2013-01-17 20:21:00,44.4,27.4,18.32,WNW,295,4.0,4.0,51,0.00,,,0.43,VWS V14.00,2013-01-18 01:21:00,
2013-01-17 20:26:00,44.2,27.3,18.32,NW,307,3.6,7.6,51,0.00,,,0.43,VWS V14.00,2013-01-18 01:26:00,
2013-01-17 20:31:00,44.2,27.3,18.32,NW,324,3.1,4.0,51,0.00,,,0.43,VWS V14.00,2013-01-18 01:31:00,
2013-01-17 20:36:00,44.4,28.4,18.32,West,264,3.6,3.6,53,0.00,,,0.43,VWS V14.00,2013-01-18 01:36:00,
2013-01-17 20:41:00,44.2,27.7,18.32,NNW,348,6.3,8.7,52,0.00,,,0.43,VWS V14.00,2013-01-18 01:41:00,
2013-01-17 20:46:00,44.2,27.7,18.32,NW,307,5.8,10.1,52,0.00,,,0.43,VWS V14.00,2013-01-18 01:46:00,
2013-01-17 20:51:00,44.2,28.7,18.32,North,0,4.0,6.3,54,0.00,,,0.43,VWS V14.00,2013-01-18 01:51:00,
2013-01-17 20:56:00,44.2,28.7,18.32,NW,315,3.6,4.0,54,0.00,,,0.43,VWS V14.00,2013-01-18 01:56:00,
2013-01-17 21:01:00,44.1,28.0,18.32,NNW,332,6.3,8.1,53,0.00,,,0.43,VWS V14.00,2013-01-18 02:01:00,
2013-01-17 21:06:00,43.9,27.4,18.32,SW,236,8.1,8.1,52,0.00,,,0.43,VWS V14.00,2013-01-18 02:06:00,
2013-01-17 21:12:00,43.9,28.3,18.32,WNW,289,5.4,8.1,54,0.00,,,0.43,VWS V14.00,2013-01-18 02:12:00,
2013-01-17 21:17:00,43.9,28.8,18.32,North,9,5.8,7.6,55,0.00,,,0.43,VWS V14.00,2013-01-18 02:17:00,
2013-01-17 21:22:00,43.7,28.6,18.32,North,0,8.3,8.3,55,0.00,,,0.43,VWS V14.00,2013-01-18 02:22:00,
2013-01-17 21:27:00,43.9,29.6,18.32,North,11,5.8,6.3,57,0.00,,,0.43,VWS V14.00,2013-01-18 02:27:00,
2013-01-17 21:32:00,43.9,30.1,18.32,North,349,4.0,8.1,58,0.00,,,0.43,VWS V14.00,2013-01-18 02:32:00,
2013-01-17 21:37:00,43.9,30.1,18.32,NNW,331,6.3,6.3,58,0.00,,,0.43,VWS V14.00,2013-01-18 02:37:00,
2013-01-17 21:42:00,43.9,30.1,18.32,North,357,7.6,11.4,58,0.00,,,0.43,VWS V14.00,2013-01-18 02:42:00,
2013-01-17 21:47:00,43.9,30.9,18.32,NNE,25,8.1,8.1,60,0.00,,,0.43,VWS V14.00,2013-01-18 02:47:00,
2013-01-17 21:52:00,44.1,31.1,18.32,North,0,6.3,8.3,60,0.00,,,0.43,VWS V14.00,2013-01-18 02:52:00,
2013-01-17 21:57:00,44.1,31.5,18.32,North,0,11.0,11.0,61,0.00,,,0.43,VWS V14.00,2013-01-18 02:57:00,
2013-01-17 22:02:00,44.2,31.7,18.32,NNW,338,6.3,8.3,61,0.00,,,0.43,VWS V14.00,2013-01-18 03:02:00,
2013-01-17 22:07:00,44.2,31.7,18.32,North,357,8.3,10.1,61,0.00,,,0.43,VWS V14.00,2013-01-18 03:07:00,
2013-01-17 22:12:00,44.1,31.1,18.32,North,357,8.7,8.7,60,0.00,,,0.43,VWS V14.00,2013-01-18 03:12:00,
2013-01-17 22:17:00,43.7,31.1,18.32,North,357,8.3,10.5,61,0.00,,,0.43,VWS V14.00,2013-01-18 03:17:00,
2013-01-17 22:23:00,43.3,31.2,18.32,North,353,11.0,11.0,62,0.00,,,0.43,VWS V14.00,2013-01-18 03:23:00,
2013-01-17 22:28:00,43.2,31.4,18.32,NE,50,4.0,6.3,63,0.00,,,0.43,VWS V14.00,2013-01-18 03:28:00,
2013-01-17 22:33:00,43.0,31.6,18.32,NNE,33,10.5,10.5,64,0.00,,,0.43,VWS V14.00,2013-01-18 03:33:00,
2013-01-17 22:38:00,43.0,31.6,18.32,North,3,9.2,9.2,64,0.00,,,0.43,VWS V14.00,2013-01-18 03:38:00,
2013-01-17 22:43:00,43.0,31.6,18.32,North,353,11.4,11.4,64,0.00,,,0.43,VWS V14.00,2013-01-18 03:43:00,
2013-01-17 22:48:00,42.8,31.5,18.32,North,3,5.8,9.2,64,0.00,,,0.43,VWS V14.00,2013-01-18 03:48:00,
2013-01-17 22:53:00,43.0,31.6,18.32,North,9,8.3,11.4,64,0.00,,,0.43,VWS V14.00,2013-01-18 03:53:00,
2013-01-17 22:58:00,43.0,31.6,18.32,NNE,21,11.0,11.0,64,0.00,,,0.43,VWS V14.00,2013-01-18 03:58:00,
2013-01-17 23:03:00,43.0,31.6,18.32,North,353,6.3,11.9,64,0.00,,,0.43,VWS V14.00,2013-01-18 04:03:00,
2013-01-17 23:08:00,43.0,31.6,18.32,North,357,8.3,13.6,64,0.00,,,0.43,VWS V14.00,2013-01-18 04:08:00,
2013-01-17 23:14:00,43.2,31.8,18.32,North,0,8.3,11.0,64,0.00,,,0.43,VWS V14.00,2013-01-18 04:14:00,
2013-01-17 23:19:00,43.2,31.8,18.32,North,357,5.8,9.6,64,0.00,,,0.43,VWS V14.00,2013-01-18 04:19:00,
2013-01-17 23:24:00,43.2,31.8,18.32,North,357,8.7,11.0,64,0.00,,,0.43,VWS V14.00,2013-01-18 04:24:00,
2013-01-17 23:29:00,43.2,32.2,18.32,NNE,29,10.1,10.1,65,0.00,,,0.43,VWS V14.00,2013-01-18 04:29:00,
2013-01-17 23:34:00,43.2,31.8,18.32,NNW,334,5.8,9.2,64,0.00,,,0.43,VWS V14.00,2013-01-18 04:34:00,
2013-01-17 23:39:00,43.3,32.4,18.32,North,0,8.7,10.5,65,0.00,,,0.43,VWS V14.00,2013-01-18 04:39:00,
2013-01-17 23:44:00,43.2,31.8,18.32,NNE,28,13.2,13.2,64,0.00,,,0.43,VWS V14.00,2013-01-18 04:44:00,
2013-01-17 23:49:00,43.2,31.8,18.32,North,353,8.7,8.7,64,0.00,,,0.43,VWS V14.00,2013-01-18 04:49:00,
2013-01-17 23:54:00,43.0,32.0,18.32,NNW,337,8.3,8.7,65,0.00,,,0.43,VWS V14.00,2013-01-18 04:54:00,
2013-01-17 23:59:00,42.8,31.5,18.32,ENE,61,4.5,7.6,64,0.00,,,0.43,VWS V14.00,2013-01-18 04:59:00,